createdAt,value
2023-10-10T00:02:21.767Z,101477.59
2023-10-10T00:04:57.421Z,101482.21
2023-10-10T00:07:36.712Z,101479.16
2023-10-10T00:10:15.723Z,101476.77
2023-10-10T00:12:53.313Z,101476.49
2023-10-10T00:15:36.122Z,101477.05
2023-10-10T00:18:14.426Z,101477.59
2023-10-10T00:21:07.242Z,101472.16
2023-10-10T00:23:44.071Z,101472.59
2023-10-10T00:26:23.051Z,101473.13
2023-10-10T00:29:03.461Z,101473.79
2023-10-10T00:31:57.338Z,101473.27
2023-10-10T00:34:35.960Z,101472.08
2023-10-10T00:37:15.783Z,101467.91
2023-10-10T00:39:56.121Z,101461.91
2023-10-10T00:42:42.566Z,101462.81
2023-10-10T00:45:17.717Z,101460.55
2023-10-10T00:48:01.499Z,101458.31
2023-10-10T00:50:39.245Z,101457.40
2023-10-10T00:53:25.439Z,101453.34
2023-10-10T00:56:00.332Z,101452.06
2023-10-10T00:58:41.848Z,101451.01
2023-10-10T01:01:21.490Z,101450.49
2023-10-10T01:04:01.031Z,101450.27
2023-10-10T01:06:41.230Z,101450.30
2023-10-10T01:09:24.588Z,101446.89
2023-10-10T01:12:03.134Z,101451.95
2023-10-10T01:14:40.094Z,101453.25
2023-10-10T01:17:17.255Z,101451.90
2023-10-10T01:20:01.036Z,101452.09
2023-10-10T01:23:01.401Z,101455.05
2023-10-10T01:25:45.858Z,101456.38
2023-10-10T01:28:35.318Z,101457.39
2023-10-10T01:31:21.820Z,101461.52
2023-10-10T01:34:02.364Z,101459.97
2023-10-10T01:36:40.341Z,101468.03
2023-10-10T01:39:38.059Z,101466.48
2023-10-10T01:42:17.376Z,101473.02
2023-10-10T01:44:55.769Z,101476.65
2023-10-10T01:47:36.803Z,101477.97
2023-10-10T01:50:17.054Z,101479.95
2023-10-10T01:52:52.643Z,101477.42
2023-10-10T01:55:31.565Z,101471.47
2023-10-10T01:58:13.706Z,101467.29
2023-10-10T02:00:49.844Z,101462.42
2023-10-10T02:03:29.228Z,101462.23
2023-10-10T02:06:05.376Z,101463.45
2023-10-10T02:08:42.202Z,101461.67
2023-10-10T02:11:22.713Z,101458.42
2023-10-10T02:14:00.646Z,101460.21
2023-10-10T02:16:42.150Z,101458.86
2023-10-10T02:19:26.908Z,101457.84
2023-10-10T02:22:24.902Z,101460.11
2023-10-10T02:25:32.181Z,101466.39
2023-10-10T02:28:22.377Z,101466.52
2023-10-10T02:31:07.179Z,101471.38
2023-10-10T02:33:50.865Z,101479.80
2023-10-10T02:36:36.960Z,101479.86
2023-10-10T02:39:30.485Z,101478.30
2023-10-10T02:42:15.861Z,101480.85
2023-10-10T02:44:56.122Z,101472.58
2023-10-10T02:47:35.282Z,101471.36
2023-10-10T02:50:16.878Z,101466.78
2023-10-10T02:53:02.010Z,101470.17
2023-10-10T02:55:37.449Z,101472.92
2023-10-10T02:58:24.007Z,101471.98
2023-10-10T03:01:01.392Z,101470.53
2023-10-10T03:03:42.177Z,101471.63
2023-10-10T03:06:30.016Z,101472.19
2023-10-10T03:09:14.975Z,101471.45
2023-10-10T03:12:05.473Z,101466.40
2023-10-10T03:14:46.018Z,101461.98
2023-10-10T03:17:45.241Z,101462.77
2023-10-10T03:20:41.250Z,101462.22
2023-10-10T03:23:35.009Z,101462.58
2023-10-10T03:26:20.676Z,101461.52
2023-10-10T03:29:06.505Z,101459.71
2023-10-10T03:31:49.987Z,101463.86
2023-10-10T03:34:46.220Z,101457.77
2023-10-10T03:37:30.306Z,101458.92
2023-10-10T03:40:23.560Z,101460.65
2023-10-10T03:43:19.274Z,101463.19
2023-10-10T03:46:18.031Z,101459.09
2023-10-10T03:49:20.680Z,101461.53
2023-10-10T03:52:18.137Z,101469.41
2023-10-10T03:55:10.222Z,101470.14
2023-10-10T03:58:03.555Z,101472.73
2023-10-10T04:00:55.670Z,101474.73
2023-10-10T04:03:48.474Z,101479.59
2023-10-10T04:06:41.545Z,101488.23
2023-10-10T04:09:37.476Z,101485.34
2023-10-10T04:12:38.322Z,101492.30
2023-10-10T04:15:35.725Z,101490.63
2023-10-10T04:18:29.894Z,101496.86
2023-10-10T04:21:30.753Z,101500.82
2023-10-10T04:24:28.193Z,101502.82
2023-10-10T04:27:22.195Z,101503.14
2023-10-10T04:30:18.797Z,101507.34
2023-10-10T04:33:13.504Z,101509.27
2023-10-10T04:36:07.995Z,101509.37
2023-10-10T04:39:00.090Z,101511.58
2023-10-10T04:41:53.309Z,101512.95
2023-10-10T04:44:48.070Z,101516.73
2023-10-10T04:47:41.311Z,101517.50
2023-10-10T04:50:33.149Z,101519.96
2023-10-10T04:53:27.018Z,101520.27
2023-10-10T04:56:21.063Z,101516.94
2023-10-10T04:59:14.259Z,101518.16
2023-10-10T05:02:06.691Z,101517.67
2023-10-10T05:04:59.931Z,101520.54
2023-10-10T05:07:55.585Z,101521.11
2023-10-10T05:10:47.998Z,101527.55
2023-10-10T05:13:40.456Z,101525.84
2023-10-10T05:16:33.745Z,101533.14
2023-10-10T05:19:27.230Z,101532.02
2023-10-10T05:22:20.784Z,101533.06
2023-10-10T05:24:58.453Z,101535.05
2023-10-10T05:27:34.884Z,101536.23
2023-10-10T05:30:25.540Z,101537.96
2023-10-10T05:33:04.444Z,101541.80
2023-10-10T05:35:50.652Z,101548.61
2023-10-10T05:38:27.219Z,101555.48
2023-10-10T05:41:04.245Z,101551.36
2023-10-10T05:43:37.786Z,101550.41
2023-10-10T05:46:17.791Z,101551.31
2023-10-10T05:48:53.311Z,101554.38
2023-10-10T05:51:29.729Z,101556.48
2023-10-10T05:54:05.684Z,101556.54
2023-10-10T05:56:42.815Z,101554.02
2023-10-10T05:59:19.878Z,101557.17
2023-10-10T06:01:57.582Z,101556.84
2023-10-10T06:04:38.742Z,101554.35
2023-10-10T06:07:17.878Z,101553.64
2023-10-10T06:09:54.380Z,101555.80
2023-10-10T06:12:33.869Z,101559.27
2023-10-10T06:15:14.584Z,101563.27
2023-10-10T06:17:55.895Z,101562.55
2023-10-10T06:20:33.610Z,101566.55
2023-10-10T06:23:09.537Z,101564.39
2023-10-10T06:25:48.281Z,101564.27
2023-10-10T06:28:27.745Z,101556.27
2023-10-10T06:31:04.716Z,101549.70
2023-10-10T06:33:44.143Z,101550.67
2023-10-10T06:36:40.250Z,101550.11
2023-10-10T06:39:34.862Z,101550.73
2023-10-10T06:42:22.404Z,101551.68
2023-10-10T06:45:11.913Z,101557.77
2023-10-10T06:47:52.654Z,101553.55
2023-10-10T06:50:34.316Z,101555.52
2023-10-10T06:53:30.528Z,101550.63
2023-10-10T06:56:28.388Z,101553.80
2023-10-10T06:59:03.772Z,101555.48
2023-10-10T07:01:42.016Z,101553.98
2023-10-10T07:04:21.566Z,101555.62
2023-10-10T07:07:03.011Z,101546.86
2023-10-10T07:09:39.629Z,101549.86
2023-10-10T07:12:15.852Z,101555.08
2023-10-10T07:14:56.209Z,101562.22
2023-10-10T07:17:40.878Z,101563.60
2023-10-10T07:20:35.879Z,101565.52
2023-10-10T07:23:12.422Z,101564.19
2023-10-10T07:26:00.350Z,101564.90
2023-10-10T07:28:51.493Z,101564.90
2023-10-10T07:31:35.882Z,101568.67
2023-10-10T07:34:17.527Z,101574.77
2023-10-10T07:36:57.220Z,101568.75
2023-10-10T07:39:35.726Z,101571.33
2023-10-10T07:42:11.702Z,101571.23
2023-10-10T07:44:49.740Z,101568.77
2023-10-10T07:47:34.301Z,101568.89
2023-10-10T07:50:13.828Z,101567.19
2023-10-10T07:53:13.718Z,101569.56
2023-10-10T07:55:58.015Z,101567.42
2023-10-10T07:58:51.727Z,101564.38
2023-10-10T08:01:30.435Z,101557.31
2023-10-10T08:04:06.842Z,101555.77
2023-10-10T08:06:47.512Z,101554.57
2023-10-10T08:09:26.524Z,101555.33
2023-10-10T08:12:02.842Z,101553.64
2023-10-10T08:14:42.350Z,101551.64
2023-10-10T08:17:28.062Z,101550.02
2023-10-10T08:20:23.475Z,101549.13
2023-10-10T08:23:07.100Z,101553.30
2023-10-10T08:25:40.706Z,101554.39
2023-10-10T08:28:23.326Z,101554.30
2023-10-10T08:31:04.060Z,101557.83
2023-10-10T08:33:39.774Z,101562.55
2023-10-10T08:36:25.286Z,101561.05
2023-10-10T08:39:20.186Z,101560.45
2023-10-10T08:41:58.900Z,101562.16
2023-10-10T08:44:40.133Z,101564.65
2023-10-10T08:47:23.238Z,101568.31
2023-10-10T08:49:59.804Z,101568.73
2023-10-10T08:52:40.932Z,101571.77
2023-10-10T08:55:29.291Z,101575.21
2023-10-10T08:58:10.390Z,101574.12
2023-10-10T09:00:49.792Z,101573.48
2023-10-10T09:03:28.601Z,101573.05
2023-10-10T09:06:16.883Z,101572.90
2023-10-10T09:08:52.975Z,101571.96
2023-10-10T09:11:32.707Z,101575.88
2023-10-10T09:14:11.519Z,101569.75
2023-10-10T09:16:46.016Z,101567.66
2023-10-10T09:19:22.630Z,101566.76
2023-10-10T09:22:01.722Z,101563.33
2023-10-10T09:24:44.973Z,101561.83
2023-10-10T09:27:25.499Z,101559.70
2023-10-10T09:30:11.077Z,101561.27
2023-10-10T09:33:00.105Z,101561.82
2023-10-10T09:35:41.812Z,101565.30
2023-10-10T09:38:21.935Z,101563.63
2023-10-10T09:41:17.493Z,101565.55
2023-10-10T09:44:38.824Z,101562.16
2023-10-10T09:47:19.629Z,101561.86
2023-10-10T09:50:23.685Z,101560.72
2023-10-10T09:53:04.726Z,101558.56
2023-10-10T09:55:45.640Z,101557.27
2023-10-10T09:58:30.144Z,101556.60
2023-10-10T10:01:16.019Z,101558.41
2023-10-10T10:04:04.201Z,101562.83
2023-10-10T10:07:07.682Z,101556.10
2023-10-10T10:10:36.889Z,101553.10
2023-10-10T10:13:29.869Z,101553.98
2023-10-10T10:16:31.511Z,101547.77
2023-10-10T10:19:16.595Z,101547.86
2023-10-10T10:22:12.311Z,101546.86
2023-10-10T10:25:28.533Z,101541.34
2023-10-10T10:28:17.184Z,101535.39
2023-10-10T10:30:58.422Z,101529.40
2023-10-10T10:33:54.697Z,101525.93
2023-10-10T10:36:30.701Z,101528.16
2023-10-10T10:39:22.133Z,101521.00
2023-10-10T10:42:03.305Z,101516.02
2023-10-10T10:44:48.779Z,101507.82
2023-10-10T10:48:01.566Z,101509.18
2023-10-10T10:50:48.197Z,101503.84
2023-10-10T10:53:36.258Z,101500.17
2023-10-10T10:56:31.245Z,101497.49
2023-10-10T10:59:21.483Z,101488.90
2023-10-10T11:01:59.094Z,101489.11
2023-10-10T11:04:47.215Z,101478.89
2023-10-10T11:07:32.002Z,101480.30
2023-10-10T11:10:13.881Z,101476.16
2023-10-10T11:12:50.708Z,101470.13
2023-10-10T11:15:27.061Z,101470.60
2023-10-10T11:18:11.963Z,101468.58
2023-10-10T11:21:09.475Z,101468.88
2023-10-10T11:23:48.703Z,101465.92
2023-10-10T11:26:25.874Z,101466.66
2023-10-10T11:29:01.254Z,101463.08
2023-10-10T11:31:49.434Z,101460.36
2023-10-10T11:34:40.129Z,101460.23
2023-10-10T11:37:25.057Z,101458.57
2023-10-10T11:40:33.015Z,101456.39
2023-10-10T11:43:13.096Z,101453.42
2023-10-10T11:45:53.143Z,101447.39
2023-10-10T11:48:43.878Z,101444.16
2023-10-10T11:51:34.953Z,101445.03
2023-10-10T11:54:11.750Z,101437.16
2023-10-10T11:56:48.261Z,101436.64
2023-10-10T11:59:26.078Z,101430.77
2023-10-10T12:02:15.822Z,101429.51
2023-10-10T12:04:52.551Z,101427.96
2023-10-10T12:07:29.203Z,101426.08
2023-10-10T12:10:10.456Z,101429.65
2023-10-10T12:12:47.949Z,101426.30
2023-10-10T12:15:25.158Z,101425.77
2023-10-10T12:18:02.638Z,101432.15
2023-10-10T12:20:44.632Z,101431.48
2023-10-10T12:23:23.206Z,101428.67
2023-10-10T12:26:01.349Z,101427.56
2023-10-10T12:28:37.395Z,101427.00
2023-10-10T12:31:18.590Z,101426.17
2023-10-10T12:33:56.167Z,101420.64
2023-10-10T12:36:34.799Z,101414.61
2023-10-10T12:39:16.411Z,101409.80
2023-10-10T12:41:58.045Z,101403.92
2023-10-10T12:44:34.802Z,101405.46
2023-10-10T12:47:14.849Z,101406.60
2023-10-10T12:50:02.703Z,101410.07
2023-10-10T12:52:44.795Z,101411.43
2023-10-10T12:55:27.516Z,101406.04
2023-10-10T12:58:17.772Z,101408.21
2023-10-10T13:00:55.475Z,101405.92
2023-10-10T13:03:33.658Z,101392.21
2023-10-10T13:06:12.200Z,101390.77
2023-10-10T13:08:50.288Z,101383.59
2023-10-10T13:11:34.203Z,101376.36
2023-10-10T13:14:16.082Z,101368.55
2023-10-10T13:17:07.708Z,101362.77
2023-10-10T13:19:45.371Z,101365.79
2023-10-10T13:22:22.615Z,101373.16
2023-10-10T13:25:00.835Z,101374.79
2023-10-10T13:27:36.022Z,101363.06
2023-10-10T13:30:16.126Z,101361.00
2023-10-10T13:32:55.832Z,101356.30
2023-10-10T13:35:38.937Z,101350.60
2023-10-10T13:38:15.328Z,101349.77
2023-10-10T13:40:54.219Z,101353.04
2023-10-10T13:43:31.073Z,101352.71
2023-10-10T13:46:11.587Z,101366.14
2023-10-10T13:48:47.037Z,101366.20
2023-10-10T13:51:30.900Z,101375.36
2023-10-10T13:54:08.882Z,101375.48
2023-10-10T13:56:45.884Z,101377.34
2023-10-10T13:59:22.242Z,101376.70
2023-10-10T14:02:04.926Z,101377.30
2023-10-10T14:04:50.787Z,101381.73
2023-10-10T14:07:27.975Z,101382.98
2023-10-10T14:10:07.281Z,101380.79
2023-10-10T14:12:46.456Z,101378.98
2023-10-10T14:15:28.133Z,101379.17
2023-10-10T14:18:32.431Z,101368.00
2023-10-10T14:21:14.547Z,101360.86
2023-10-10T14:23:49.767Z,101363.35
2023-10-10T14:26:36.054Z,101371.42
2023-10-10T14:29:14.996Z,101372.72
2023-10-10T14:31:50.040Z,101372.91
2023-10-10T14:34:28.265Z,101371.27
2023-10-10T14:37:15.976Z,101369.73
2023-10-10T14:40:02.564Z,101369.02
2023-10-10T14:42:44.248Z,101361.98
2023-10-10T14:45:21.135Z,101366.49
2023-10-10T14:47:57.838Z,101364.08
2023-10-10T14:50:45.037Z,101360.39
2023-10-10T14:53:24.192Z,101363.65
2023-10-10T14:56:07.222Z,101371.01
2023-10-10T14:58:49.157Z,101372.52
2023-10-10T15:01:26.203Z,101371.43
2023-10-10T15:04:12.248Z,101376.08
2023-10-10T15:06:55.690Z,101373.35
2023-10-10T15:09:37.518Z,101375.52
2023-10-10T15:12:15.320Z,101372.98
2023-10-10T15:14:57.197Z,101369.81
2023-10-10T15:17:35.574Z,101373.93
2023-10-10T15:20:15.337Z,101368.77
2023-10-10T15:22:53.811Z,101368.91
2023-10-10T15:25:32.323Z,101369.58
2023-10-10T15:28:19.730Z,101371.12
2023-10-10T15:30:54.558Z,101365.39
2023-10-10T15:33:32.944Z,101365.70
2023-10-10T15:36:09.590Z,101363.36
2023-10-10T15:38:46.972Z,101365.11
2023-10-10T15:41:27.216Z,101357.42
2023-10-10T15:44:08.632Z,101348.44
2023-10-10T15:46:46.892Z,101347.54
2023-10-10T15:49:43.296Z,101339.52
2023-10-10T15:52:20.456Z,101330.64
2023-10-10T15:55:08.869Z,101325.11
2023-10-10T15:57:45.327Z,101322.66
2023-10-10T16:00:23.955Z,101320.90
2023-10-10T16:03:00.805Z,101321.36
2023-10-10T16:05:37.033Z,101319.63
2023-10-10T16:08:13.015Z,101321.77
2023-10-10T16:10:48.331Z,101342.31
2023-10-10T16:13:25.702Z,101356.91
2023-10-10T16:15:59.165Z,101354.11
2023-10-10T16:18:35.801Z,101346.63
2023-10-10T16:21:13.078Z,101343.45
2023-10-10T16:23:47.206Z,101338.98
2023-10-10T16:26:21.680Z,101336.23
2023-10-10T16:28:58.629Z,101336.63
2023-10-10T16:31:38.228Z,101336.39
2023-10-10T16:34:13.985Z,101337.06
2023-10-10T16:36:50.601Z,101331.02
2023-10-10T16:39:27.778Z,101327.66
2023-10-10T16:42:05.350Z,101334.89
2023-10-10T16:44:39.801Z,101348.41
2023-10-10T16:47:19.609Z,101342.68
2023-10-10T16:49:57.328Z,101343.69
2023-10-10T16:52:42.002Z,101342.10
2023-10-10T16:55:19.019Z,101330.41
2023-10-10T16:57:55.213Z,101328.42
2023-10-10T17:00:32.484Z,101327.45
2023-10-10T17:03:14.141Z,101326.85
2023-10-10T17:06:00.669Z,101336.97
2023-10-10T17:08:35.728Z,101342.58
2023-10-10T17:11:13.698Z,101334.70
2023-10-10T17:13:48.523Z,101338.78
2023-10-10T17:16:32.975Z,101329.70
2023-10-10T17:19:16.913Z,101326.86
2023-10-10T17:22:01.007Z,101327.73
2023-10-10T17:24:36.888Z,101323.19
2023-10-10T17:27:12.548Z,101324.70
2023-10-10T17:29:48.095Z,101327.10
2023-10-10T17:32:24.218Z,101323.20
2023-10-10T17:35:07.110Z,101319.68
2023-10-10T17:37:43.226Z,101315.42
2023-10-10T17:40:18.827Z,101306.66
2023-10-10T17:42:55.955Z,101298.20
2023-10-10T17:45:31.355Z,101305.54
2023-10-10T17:48:10.295Z,101306.96
2023-10-10T17:50:48.508Z,101305.03
2023-10-10T17:53:25.089Z,101307.16
2023-10-10T17:56:06.607Z,101301.20
2023-10-10T17:58:43.690Z,101304.73
2023-10-10T18:01:22.004Z,101307.06
2023-10-10T18:04:05.351Z,101307.45
2023-10-10T18:06:43.848Z,101311.13
2023-10-10T18:09:21.547Z,101311.77
2023-10-10T18:12:08.683Z,101313.90
2023-10-10T18:14:44.739Z,101307.78
2023-10-10T18:17:23.745Z,101299.84
2023-10-10T18:20:03.175Z,101298.21
2023-10-10T18:22:41.720Z,101294.73
2023-10-10T18:25:18.761Z,101293.92
2023-10-10T18:27:55.858Z,101298.68
2023-10-10T18:30:38.231Z,101295.73
2023-10-10T18:33:15.465Z,101287.45
2023-10-10T18:35:52.134Z,101289.10
2023-10-10T18:38:29.718Z,101286.46
2023-10-10T18:41:07.220Z,101288.96
2023-10-10T18:43:44.150Z,101288.46
2023-10-10T18:46:21.785Z,101287.62
2023-10-10T18:49:07.849Z,101284.45
2023-10-10T18:51:46.462Z,101284.02
2023-10-10T18:54:24.267Z,101283.20
2023-10-10T18:57:01.772Z,101280.12
2023-10-10T18:59:37.765Z,101284.63
2023-10-10T19:02:15.985Z,101279.60
2023-10-10T19:04:54.147Z,101272.78
2023-10-10T19:07:30.887Z,101280.09
2023-10-10T19:10:16.490Z,101275.24
2023-10-10T19:12:52.637Z,101273.00
2023-10-10T19:15:30.700Z,101276.46
2023-10-10T19:18:07.883Z,101280.48
2023-10-10T19:20:44.905Z,101278.42
2023-10-10T19:23:22.131Z,101283.03
2023-10-10T19:26:02.944Z,101279.34
2023-10-10T19:28:38.293Z,101277.10
2023-10-10T19:31:20.398Z,101274.67
2023-10-10T19:33:58.700Z,101267.95
2023-10-10T19:36:37.868Z,101264.94
2023-10-10T19:39:13.416Z,101265.61
2023-10-10T19:41:47.749Z,101262.01
2023-10-10T19:44:28.070Z,101256.56
2023-10-10T19:47:09.158Z,101255.26
2023-10-10T19:49:46.094Z,101249.35
2023-10-10T19:52:22.384Z,101245.75
2023-10-10T19:55:12.886Z,101244.98
2023-10-10T19:57:58.094Z,101246.02
2023-10-10T20:00:35.633Z,101245.80
2023-10-10T20:03:14.620Z,101242.23
2023-10-10T20:05:54.943Z,101235.83
2023-10-10T20:08:35.630Z,101233.82
2023-10-10T20:11:11.045Z,101232.83
2023-10-10T20:13:47.774Z,101233.70
2023-10-10T20:16:27.476Z,101241.17
2023-10-10T20:19:07.403Z,101250.34
2023-10-10T20:21:42.434Z,101259.38
2023-10-10T20:24:25.853Z,101263.79
2023-10-10T20:27:03.870Z,101258.59
2023-10-10T20:29:39.064Z,101252.55
2023-10-10T20:32:17.270Z,101252.33
2023-10-10T20:34:51.451Z,101248.92
2023-10-10T20:37:28.328Z,101245.58
2023-10-10T20:40:08.486Z,101239.65
2023-10-10T20:42:46.924Z,101234.98
2023-10-10T20:45:24.428Z,101237.78
2023-10-10T20:48:23.383Z,101234.99
2023-10-10T20:50:59.994Z,101240.39
2023-10-10T20:53:37.255Z,101245.88
2023-10-10T20:56:15.714Z,101241.06
2023-10-10T20:58:51.929Z,101238.52
2023-10-10T21:01:28.854Z,101245.28
2023-10-10T21:04:06.643Z,101241.06
2023-10-10T21:06:42.856Z,101233.51
2023-10-10T21:09:17.702Z,101231.65
2023-10-10T21:11:54.514Z,101229.21
2023-10-10T21:14:32.926Z,101221.00
2023-10-10T21:17:13.855Z,101215.85
2023-10-10T21:19:50.456Z,101216.22
2023-10-10T21:22:26.075Z,101212.87
2023-10-10T21:25:03.117Z,101211.01
2023-10-10T21:27:41.011Z,101211.65
2023-10-10T21:30:17.844Z,101211.65
2023-10-10T21:32:56.227Z,101211.04
2023-10-10T21:35:33.753Z,101210.04
2023-10-10T21:38:08.194Z,101210.67
2023-10-10T21:40:45.286Z,101208.30
2023-10-10T21:43:21.246Z,101207.48
2023-10-10T21:45:57.150Z,101204.48
2023-10-10T21:48:33.383Z,101202.89
2023-10-10T21:51:24.133Z,101199.65
2023-10-10T21:54:01.216Z,101196.75
2023-10-10T21:56:38.162Z,101189.85
2023-10-10T21:59:14.924Z,101185.90
2023-10-10T22:01:55.314Z,101177.00
2023-10-10T22:04:32.716Z,101172.59
2023-10-10T22:07:12.813Z,101165.63
2023-10-10T22:09:55.064Z,101168.44
2023-10-10T22:12:29.135Z,101167.61
2023-10-10T22:15:10.951Z,101165.61
2023-10-10T22:17:48.068Z,101159.45
2023-10-10T22:20:25.904Z,101157.23
2023-10-10T22:23:04.547Z,101151.60
2023-10-10T22:25:39.936Z,101144.91
2023-10-10T22:28:26.038Z,101145.36
2023-10-10T22:31:06.394Z,101139.07
2023-10-10T22:33:47.852Z,101137.12
2023-10-10T22:36:23.952Z,101130.63
2023-10-10T22:39:08.584Z,101128.40
2023-10-10T22:41:47.813Z,101127.31
2023-10-10T22:44:26.726Z,101127.31
2023-10-10T22:47:06.238Z,101126.60
2023-10-10T22:49:46.060Z,101123.77
2023-10-10T22:52:25.368Z,101123.48
2023-10-10T22:54:58.893Z,101120.68
2023-10-10T22:57:39.253Z,101116.52
2023-10-10T23:00:28.044Z,101113.55
2023-10-10T23:03:02.746Z,101113.39
2023-10-10T23:05:41.182Z,101111.00
2023-10-10T23:08:21.557Z,101110.38
2023-10-10T23:10:58.860Z,101105.99
2023-10-10T23:13:36.274Z,101100.95
2023-10-10T23:16:21.620Z,101100.15
2023-10-10T23:19:01.410Z,101093.35
2023-10-10T23:21:37.071Z,101091.45
2023-10-10T23:24:15.233Z,101085.91
2023-10-10T23:26:52.288Z,101089.56
2023-10-10T23:29:28.909Z,101089.80
2023-10-10T23:32:04.486Z,101090.45
2023-10-10T23:34:41.188Z,101086.38
2023-10-10T23:37:18.546Z,101085.09
2023-10-10T23:39:55.969Z,101086.77
2023-10-10T23:42:33.588Z,101083.66
2023-10-10T23:45:18.811Z,101080.95
2023-10-10T23:47:56.446Z,101072.42
2023-10-10T23:50:42.182Z,101072.01
2023-10-10T23:53:23.674Z,101066.78
2023-10-10T23:56:04.843Z,101062.62
2023-10-10T23:58:47.672Z,101058.08
